createdAt,value
2022-08-05T01:53:57.605Z,15.55
2022-08-05T02:42:54.358Z,13.48
2022-08-05T02:45:26.511Z,12.80
2022-08-05T02:48:07.545Z,13.90
2022-08-05T02:50:51.933Z,13.43
2022-08-05T02:53:22.150Z,12.27
2022-08-05T02:55:59.663Z,13.18
2022-08-05T02:58:28.794Z,13.55
2022-08-05T03:01:02.271Z,10.77
2022-08-05T03:03:34.070Z,13.80
2022-08-05T03:06:55.815Z,12.88
2022-08-05T03:09:15.741Z,13.05
2022-08-05T03:12:10.518Z,12.85
2022-08-05T03:14:48.165Z,14.02
2022-08-05T03:17:18.230Z,13.57
2022-08-05T03:19:58.729Z,13.77
2022-08-05T03:22:44.169Z,13.10
2022-08-05T03:25:32.785Z,12.93
2022-08-05T03:28:18.540Z,13.13
2022-08-05T03:30:48.314Z,12.38
2022-08-05T03:33:17.477Z,12.60
2022-08-05T03:35:47.397Z,13.23
2022-08-05T03:38:16.503Z,12.80
2022-08-05T03:40:53.388Z,13.52
2022-08-05T03:44:08.634Z,13.50
2022-08-05T03:46:13.790Z,12.65
2022-08-05T03:48:42.094Z,13.60
2022-08-05T03:52:37.634Z,13.30
2022-08-05T03:55:53.742Z,13.85
2022-08-05T03:57:41.500Z,13.48
2022-08-05T04:02:58.204Z,13.48
2022-08-05T04:05:33.411Z,15.70
2022-08-05T04:08:14.855Z,14.93
2022-08-05T04:10:56.453Z,14.20
2022-08-05T04:13:25.832Z,15.45
2022-08-05T04:16:14.349Z,14.13
2022-08-05T04:18:41.883Z,14.60
2022-08-05T04:22:05.162Z,15.20
2022-08-05T04:24:09.058Z,15.73
2022-08-05T04:26:41.722Z,14.48
2022-08-05T04:29:10.825Z,14.77
2022-08-05T04:31:38.424Z,14.80
2022-08-05T04:34:33.031Z,14.50
2022-08-05T04:36:53.967Z,14.60
2022-08-05T04:39:21.712Z,14.88
2022-08-05T04:41:50.939Z,15.07
2022-08-05T04:44:21.222Z,15.20
2022-08-05T04:46:56.747Z,14.13
2022-08-05T04:49:39.079Z,13.70
2022-08-05T04:52:13.353Z,14.05
2022-08-05T04:54:40.595Z,14.63
2022-08-05T04:57:07.776Z,13.88
2022-08-05T04:59:39.054Z,14.75
2022-08-05T05:02:36.572Z,13.40
2022-08-05T05:05:02.358Z,13.38
2022-08-05T05:07:32.306Z,11.98
2022-08-05T05:10:07.275Z,11.57
2022-08-05T05:12:36.848Z,13.32
2022-08-05T05:15:05.596Z,12.10
2022-08-05T05:17:56.949Z,12.38
2022-08-05T05:20:28.253Z,13.10
2022-08-05T05:23:03.116Z,11.82
2022-08-05T05:25:40.979Z,11.77
2022-08-05T05:28:09.481Z,12.68
2022-08-05T05:30:37.780Z,11.55
2022-08-05T05:33:13.996Z,11.57
2022-08-05T05:35:48.113Z,11.52
2022-08-05T05:38:26.892Z,10.63
2022-08-05T05:40:57.231Z,11.13
2022-08-05T05:43:54.181Z,25.33
2022-08-05T05:46:17.203Z,11.15
2022-08-05T05:48:48.360Z,13.70
2022-08-05T05:51:20.635Z,22.97
2022-08-05T05:53:57.697Z,12.45
2022-08-05T05:56:32.543Z,12.82
2022-08-05T05:59:07.416Z,14.50
2022-08-05T06:01:38.927Z,15.73
2022-08-05T06:04:07.768Z,12.10
2022-08-05T06:06:35.763Z,11.30
2022-08-05T06:09:07.676Z,10.57
2022-08-05T06:11:35.165Z,9.02
2022-08-05T06:14:06.728Z,9.65
2022-08-05T06:16:37.088Z,10.93
2022-08-05T06:19:07.477Z,21.53
2022-08-05T06:21:38.419Z,16.73
2022-08-05T06:24:11.890Z,7.80
2022-08-05T06:26:51.213Z,7.47
2022-08-05T06:29:44.246Z,7.43
2022-08-05T06:32:26.217Z,7.38
2022-08-05T06:35:05.814Z,6.65
2022-08-05T06:37:56.611Z,7.65
2022-08-05T06:40:21.511Z,6.38
2022-08-05T06:42:55.271Z,7.05
2022-08-05T06:45:44.441Z,6.10
2022-08-05T06:48:36.111Z,6.07
2022-08-05T06:50:57.672Z,6.38
2022-08-05T06:53:28.672Z,6.43
2022-08-05T06:58:35.257Z,6.25
2022-08-05T07:01:07.112Z,6.20
2022-08-05T07:03:35.340Z,6.40
2022-08-05T07:06:14.164Z,6.30
2022-08-05T07:08:47.577Z,6.50
2022-08-05T07:11:22.183Z,6.13
2022-08-05T07:14:15.420Z,6.18
2022-08-05T07:17:58.779Z,5.82
2022-08-05T07:20:29.821Z,5.20
2022-08-05T07:22:28.682Z,4.65
2022-08-05T07:25:24.050Z,6.40
2022-08-05T07:27:57.399Z,4.93
2022-08-05T07:30:38.551Z,8.15
2022-08-05T07:33:15.738Z,5.82
2022-08-05T07:36:05.158Z,4.60
2022-08-05T07:40:26.906Z,4.88
2022-08-05T07:45:09.464Z,11.27
2022-08-05T07:47:41.998Z,5.60
2022-08-05T07:52:48.721Z,6.35
2022-08-05T07:56:05.322Z,15.55
2022-08-05T07:58:03.956Z,14.45
2022-08-05T08:00:31.638Z,6.22
2022-08-05T08:03:13.640Z,6.93
2022-08-05T08:05:49.664Z,12.25
2022-08-05T08:08:20.034Z,6.97
2022-08-05T08:10:48.737Z,6.25
2022-08-05T08:13:22.041Z,7.00
2022-08-05T08:16:34.570Z,5.70
2022-08-05T08:18:43.515Z,6.57
2022-08-05T08:21:17.685Z,6.97
2022-08-05T08:24:01.885Z,8.73
2022-08-05T08:26:32.379Z,5.93
2022-08-05T08:29:09.749Z,7.03
2022-08-05T08:31:48.509Z,7.75
2022-08-05T08:34:18.737Z,7.68
2022-08-05T08:36:54.039Z,7.22
2022-08-05T08:39:24.656Z,7.20
2022-08-05T08:42:00.191Z,7.45
2022-08-05T08:45:18.559Z,8.63
2022-08-05T08:48:05.676Z,9.15
2022-08-05T08:50:30.580Z,10.30
2022-08-05T08:53:11.807Z,9.57
2022-08-05T08:56:04.445Z,9.52
2022-08-05T08:58:37.077Z,9.32
2022-08-05T09:01:16.355Z,10.38
2022-08-05T09:03:54.331Z,9.68
2022-08-05T09:06:28.059Z,8.90
2022-08-05T09:08:59.973Z,9.98
2022-08-05T09:11:51.612Z,10.73
2022-08-05T09:14:57.272Z,10.80
2022-08-05T09:17:05.172Z,11.05
2022-08-05T09:20:01.734Z,13.50
2022-08-05T09:22:31.151Z,19.73
2022-08-05T09:25:02.124Z,13.02
2022-08-05T09:28:04.703Z,12.65
2022-08-05T09:30:28.505Z,18.52
2022-08-05T09:33:02.353Z,11.85
2022-08-05T09:35:29.636Z,11.75
2022-08-05T09:38:16.671Z,12.88
2022-08-05T09:40:52.302Z,12.52
2022-08-05T09:43:41.758Z,12.18
2022-08-05T09:46:50.091Z,12.23
2022-08-05T09:49:40.505Z,13.67
2022-08-05T09:52:23.157Z,9.95
2022-08-05T09:55:57.260Z,11.05
2022-08-05T09:57:59.802Z,11.30
2022-08-05T10:00:27.610Z,14.15
2022-08-05T10:02:58.589Z,10.63
2022-08-05T10:05:32.965Z,12.98
2022-08-05T10:08:36.481Z,11.05
2022-08-05T10:10:54.242Z,10.70
2022-08-05T10:13:31.599Z,13.10
2022-08-05T10:16:41.622Z,13.55
2022-08-05T10:19:11.769Z,8.32
2022-08-05T10:21:40.803Z,12.88
2022-08-05T10:24:15.153Z,15.38
2022-08-05T10:26:51.835Z,12.20
2022-08-05T10:29:23.912Z,21.98
2022-08-05T10:32:52.387Z,9.05
2022-08-05T10:35:00.796Z,12.52
2022-08-05T10:37:40.103Z,10.25
2022-08-05T10:40:22.406Z,8.55
2022-08-05T10:43:01.423Z,9.18
2022-08-05T10:45:40.103Z,7.65
2022-08-05T10:48:36.047Z,4.72
2022-08-05T10:51:21.942Z,5.43
2022-08-05T10:53:55.965Z,5.10
2022-08-05T10:56:28.690Z,5.07
2022-08-05T10:59:07.218Z,9.60
2022-08-05T11:01:54.011Z,3.88
2022-08-05T11:04:22.770Z,14.95
2022-08-05T11:06:57.480Z,4.85
2022-08-05T11:09:39.535Z,5.97
2022-08-05T11:12:42.181Z,6.53
2022-08-05T11:16:00.045Z,5.28
2022-08-05T11:18:30.114Z,9.20
2022-08-05T11:21:00.628Z,5.20
2022-08-05T11:23:33.296Z,4.80
2022-08-05T11:26:11.148Z,5.57
2022-08-05T11:28:44.331Z,5.25
2022-08-05T11:31:11.811Z,4.35
2022-08-05T11:33:47.957Z,4.65
2022-08-05T11:36:34.594Z,7.20
2022-08-05T11:39:08.909Z,6.93
2022-08-05T11:42:00.925Z,8.88
2022-08-05T11:44:53.174Z,5.68
2022-08-05T11:47:23.193Z,5.72
2022-08-05T11:50:09.568Z,6.03
2022-08-05T11:52:44.120Z,6.70
2022-08-05T11:55:13.446Z,6.95
2022-08-05T11:58:09.240Z,6.53
2022-08-05T12:00:38.603Z,10.13
2022-08-05T12:03:29.030Z,7.40
2022-08-05T12:06:09.661Z,7.72
2022-08-05T12:09:04.152Z,7.53
2022-08-05T12:11:40.156Z,9.05
2022-08-05T12:14:10.786Z,6.80
2022-08-05T12:16:40.776Z,6.88
2022-08-05T12:20:25.837Z,6.60
2022-08-05T12:22:01.140Z,7.50
2022-08-05T12:24:28.662Z,11.15
2022-08-05T12:26:57.418Z,10.48
2022-08-05T12:29:27.559Z,7.40
2022-08-05T12:32:02.162Z,6.93
2022-08-05T12:34:32.578Z,7.65
2022-08-05T12:37:17.320Z,8.75
2022-08-05T12:39:51.512Z,18.00
2022-08-05T12:42:21.162Z,9.32
2022-08-05T12:44:48.739Z,10.00
2022-08-05T12:47:31.506Z,8.98
2022-08-05T12:50:04.782Z,6.63
2022-08-05T12:52:39.487Z,7.25
2022-08-05T12:55:25.878Z,6.82
2022-08-05T12:58:38.451Z,5.57
2022-08-05T13:02:02.360Z,6.75
2022-08-05T13:03:41.985Z,5.93
2022-08-05T13:06:17.710Z,5.00
2022-08-05T13:08:51.965Z,5.60
2022-08-05T13:11:25.316Z,5.47
2022-08-05T13:14:36.454Z,6.03
2022-08-05T13:17:08.552Z,4.88
2022-08-05T13:19:50.946Z,5.07
2022-08-05T13:22:28.530Z,5.25
2022-08-05T13:25:05.099Z,7.80
2022-08-05T13:27:38.253Z,4.95
2022-08-05T13:30:34.352Z,5.43
2022-08-05T13:32:56.937Z,4.88
2022-08-05T13:35:43.269Z,4.32
2022-08-05T13:38:20.269Z,4.78
2022-08-05T13:41:06.179Z,4.40
2022-08-05T13:43:43.963Z,4.25
2022-08-05T13:46:14.854Z,4.50
2022-08-05T13:49:00.324Z,4.20
2022-08-05T13:51:40.209Z,4.18
2022-08-05T13:54:15.092Z,3.42
2022-08-05T13:56:45.252Z,3.53
2022-08-05T13:59:24.157Z,3.28
2022-08-05T14:01:56.405Z,2.90
2022-08-05T14:04:51.484Z,19.38
2022-08-05T14:07:26.304Z,2.78
2022-08-05T14:10:12.179Z,2.63
2022-08-05T14:12:39.833Z,2.92
2022-08-05T14:16:07.405Z,2.70
2022-08-05T14:17:59.807Z,2.35
2022-08-05T14:20:30.916Z,2.63
2022-08-05T14:22:59.482Z,2.20
2022-08-05T14:25:28.378Z,2.13
2022-08-05T14:27:58.574Z,2.00
2022-08-05T14:30:28.129Z,2.30
2022-08-05T14:32:56.946Z,2.25
2022-08-05T14:35:36.314Z,2.60
2022-08-05T14:38:04.633Z,2.40
2022-08-05T14:40:31.710Z,2.10
2022-08-05T14:43:01.671Z,2.72
2022-08-05T14:45:29.186Z,3.00
2022-08-05T14:48:03.603Z,2.40
2022-08-05T14:50:36.032Z,2.50
2022-08-05T14:53:06.998Z,2.40
2022-08-05T14:55:39.315Z,2.45
2022-08-05T14:58:11.914Z,2.22
2022-08-05T15:00:59.238Z,2.42
2022-08-05T15:03:33.857Z,2.50
2022-08-05T15:06:15.534Z,2.50
2022-08-05T15:08:59.855Z,2.55
2022-08-05T15:11:52.942Z,2.78
2022-08-05T15:14:34.921Z,2.67
2022-08-05T15:17:09.792Z,2.78
2022-08-05T15:19:56.391Z,2.75
2022-08-05T15:22:27.087Z,3.08
2022-08-05T15:24:56.566Z,3.10
2022-08-05T15:27:25.757Z,3.55
2022-08-05T15:29:56.599Z,3.15
2022-08-05T15:32:28.667Z,4.18
2022-08-05T15:34:57.222Z,4.35
2022-08-05T15:38:34.810Z,4.70
2022-08-05T15:41:01.806Z,4.60
2022-08-05T15:43:10.974Z,4.50
2022-08-05T15:45:47.546Z,5.47
2022-08-05T15:48:15.302Z,4.63
2022-08-05T15:50:43.925Z,4.30
2022-08-05T15:53:16.064Z,5.03
2022-08-05T15:56:04.172Z,8.87
2022-08-05T15:58:35.773Z,15.85
2022-08-05T16:01:16.324Z,5.68
2022-08-05T16:03:48.379Z,5.90
2022-08-05T16:06:19.732Z,5.72
2022-08-05T16:08:51.294Z,5.93
2022-08-05T16:11:40.214Z,5.50
2022-08-05T16:14:09.758Z,5.85
2022-08-05T16:16:36.856Z,4.13
2022-08-05T16:19:04.600Z,4.60
2022-08-05T16:22:00.446Z,4.65
2022-08-05T16:24:41.532Z,4.25
2022-08-05T16:27:07.344Z,3.67
2022-08-05T16:29:37.634Z,3.40
2022-08-05T16:32:09.577Z,3.50
2022-08-05T16:34:39.264Z,3.80
2022-08-05T16:38:03.268Z,3.78
2022-08-05T16:40:05.155Z,3.47
2022-08-05T16:42:35.290Z,3.42
2022-08-05T16:45:05.874Z,3.88
2022-08-05T16:47:54.190Z,3.03
2022-08-05T16:50:25.147Z,3.30
2022-08-05T16:52:52.616Z,3.33
2022-08-05T16:55:20.278Z,4.53
2022-08-05T16:57:59.795Z,15.43
2022-08-05T17:00:34.412Z,5.28
2022-08-05T17:03:03.960Z,4.82
2022-08-05T17:05:40.452Z,8.25
2022-08-05T17:08:07.910Z,3.25
2022-08-05T17:10:38.043Z,10.30
2022-08-05T17:13:05.092Z,2.00
2022-08-05T17:15:48.733Z,2.58
2022-08-05T17:18:18.992Z,16.25
2022-08-05T17:20:46.213Z,2.92
2022-08-05T17:24:03.661Z,3.40
2022-08-05T17:26:00.549Z,2.00
2022-08-05T17:28:29.431Z,8.00
2022-08-05T17:30:57.097Z,26.25
2022-08-05T17:33:25.687Z,1.90
2022-08-05T17:36:08.721Z,5.43
2022-08-05T17:38:40.228Z,2.20
2022-08-05T17:41:22.706Z,4.53
2022-08-05T17:43:56.088Z,2.28
2022-08-05T17:46:24.971Z,1.85
2022-08-05T17:48:52.042Z,6.45
2022-08-05T17:51:21.904Z,4.63
2022-08-05T17:53:54.459Z,3.35
2022-08-05T17:56:22.603Z,1.45
2022-08-05T17:58:51.057Z,1.58
2022-08-05T18:01:19.438Z,1.10
2022-08-05T18:03:58.494Z,0.93
2022-08-05T18:06:33.767Z,2.75
2022-08-05T18:09:03.571Z,4.35
2022-08-05T18:11:32.868Z,4.63
2022-08-05T18:14:03.671Z,2.85
2022-08-05T18:16:32.520Z,4.45
2022-08-05T18:18:59.685Z,5.10
2022-08-05T18:22:07.005Z,9.07
2022-08-05T18:24:14.469Z,4.07
2022-08-05T18:26:42.131Z,3.85
2022-08-05T18:29:11.033Z,2.03
2022-08-05T18:31:38.522Z,1.30
2022-08-05T18:34:12.041Z,1.08
2022-08-05T18:36:41.335Z,0.90
2022-08-05T18:39:42.313Z,3.87
2022-08-05T18:42:06.238Z,4.35
2022-08-05T18:44:51.523Z,9.57
2022-08-05T18:47:26.813Z,1.27
2022-08-05T18:50:15.871Z,1.47
2022-08-05T18:52:50.959Z,1.10
2022-08-05T18:55:19.606Z,1.10
2022-08-05T18:57:53.031Z,0.82
2022-08-05T19:00:27.003Z,1.13
2022-08-05T19:02:56.391Z,1.58
2022-08-05T19:06:13.612Z,1.98
2022-08-05T19:08:12.271Z,2.92
2022-08-05T19:10:41.192Z,2.25
2022-08-05T19:13:12.310Z,2.08
2022-08-05T19:15:57.253Z,1.02
2022-08-05T19:18:31.716Z,1.05
2022-08-05T19:20:59.652Z,0.80
2022-08-05T19:24:06.439Z,0.60
2022-08-05T19:26:16.558Z,0.68
2022-08-05T19:28:43.959Z,0.70
2022-08-05T19:31:13.420Z,0.60
2022-08-05T19:33:48.751Z,0.63
2022-08-05T19:36:30.084Z,1.50
2022-08-05T19:39:01.208Z,0.85
2022-08-05T19:42:05.852Z,1.10
2022-08-05T19:44:19.161Z,1.95
2022-08-05T19:46:46.893Z,4.22
2022-08-05T19:49:17.264Z,2.25
2022-08-05T19:52:05.040Z,2.33
2022-08-05T19:54:34.065Z,1.30
2022-08-05T19:57:08.406Z,1.08
2022-08-05T19:59:55.177Z,0.80
2022-08-05T20:02:28.157Z,0.77
2022-08-05T20:04:58.549Z,0.68
2022-08-05T20:07:45.919Z,0.70
2022-08-05T20:10:15.266Z,0.57
2022-08-05T20:12:48.043Z,0.80
2022-08-05T20:15:47.958Z,0.75
2022-08-05T20:18:10.689Z,0.50
2022-08-05T20:20:57.437Z,0.85
2022-08-05T20:23:40.122Z,4.97
2022-08-05T20:26:16.635Z,2.65
2022-08-05T20:28:52.777Z,2.00
2022-08-05T20:31:28.761Z,1.27
2022-08-05T20:34:09.087Z,0.90
2022-08-05T20:36:36.487Z,1.83
2022-08-05T20:39:06.330Z,1.00
2022-08-05T20:41:44.278Z,1.23
2022-08-05T20:44:17.609Z,8.07
2022-08-05T20:46:47.766Z,5.72
2022-08-05T20:49:18.452Z,2.10
2022-08-05T20:51:53.422Z,1.70
2022-08-05T20:54:21.626Z,1.30
2022-08-05T20:56:49.069Z,5.30
2022-08-05T20:59:19.322Z,2.17
2022-08-05T21:01:57.350Z,5.28
2022-08-05T21:04:26.960Z,2.20
2022-08-05T21:06:55.042Z,2.08
2022-08-05T21:09:23.334Z,2.92
2022-08-05T21:12:09.426Z,3.55
2022-08-05T21:14:39.948Z,2.88
2022-08-05T21:17:06.986Z,1.58
2022-08-05T21:19:47.085Z,2.13
2022-08-05T21:22:21.953Z,3.08
2022-08-05T21:24:52.553Z,1.60
2022-08-05T21:27:25.373Z,1.30
2022-08-05T21:29:58.537Z,2.88
2022-08-05T21:32:29.296Z,1.80
2022-08-05T21:35:08.816Z,1.58
2022-08-05T21:37:47.313Z,2.42
2022-08-05T21:40:20.719Z,3.42
2022-08-05T21:42:48.462Z,2.50
2022-08-05T21:45:24.517Z,7.03
2022-08-05T21:47:55.823Z,8.60
2022-08-05T21:50:26.189Z,4.97
2022-08-05T21:52:53.834Z,5.50
2022-08-05T21:56:00.842Z,4.75
2022-08-05T21:58:13.291Z,5.97
2022-08-05T22:00:40.687Z,2.80
2022-08-05T22:03:18.060Z,4.75
2022-08-05T22:05:48.794Z,3.17
2022-08-05T22:08:22.073Z,5.40
2022-08-05T22:10:51.671Z,6.15
2022-08-05T22:14:05.711Z,10.27
2022-08-05T22:16:26.033Z,5.57
2022-08-05T22:18:54.689Z,3.20
2022-08-05T22:21:25.988Z,4.00
2022-08-05T22:24:39.306Z,5.13
2022-08-05T22:27:17.653Z,3.53
2022-08-05T22:29:44.876Z,2.80
2022-08-05T22:32:17.273Z,3.55
2022-08-05T22:34:45.780Z,2.00
2022-08-05T22:37:13.138Z,2.85
2022-08-05T22:39:40.307Z,2.20
2022-08-05T22:42:10.768Z,1.70
2022-08-05T22:44:48.160Z,2.88
2022-08-05T22:47:29.950Z,5.03
2022-08-05T22:50:21.445Z,3.13
2022-08-05T22:52:50.203Z,5.15
2022-08-05T22:55:21.217Z,4.53
2022-08-05T22:57:50.465Z,3.13
2022-08-05T23:00:20.922Z,2.80
2022-08-05T23:02:50.436Z,3.00
2022-08-05T23:05:19.271Z,5.90
2022-08-05T23:07:50.466Z,2.08
2022-08-05T23:10:23.995Z,4.38
2022-08-05T23:12:55.156Z,4.15
2022-08-05T23:15:29.462Z,1.95
2022-08-05T23:18:03.687Z,5.47
2022-08-05T23:20:37.202Z,1.90
2022-08-05T23:23:08.312Z,3.45
2022-08-05T23:25:52.859Z,2.47
2022-08-05T23:28:27.655Z,3.97
2022-08-05T23:31:16.118Z,2.65
2022-08-05T23:34:03.712Z,2.83
2022-08-05T23:36:39.901Z,2.83
2022-08-05T23:39:17.670Z,7.05
2022-08-05T23:42:00.234Z,3.85
2022-08-05T23:44:27.889Z,2.10
2022-08-05T23:47:00.020Z,4.05
2022-08-05T23:49:35.837Z,5.35
2022-08-05T23:52:22.364Z,3.13
2022-08-05T23:54:54.158Z,7.57
2022-08-05T23:57:22.000Z,3.65
